sensor_id;sensor_type;location;lat;lon;timestamp;P1;durP1;ratioP1;P2;durP2;ratioP2
42092;SDS011;28974;50.316;18.960;2023-06-24T00:11:25;8.48;;;4.30;;
42092;SDS011;28974;50.316;18.960;2023-06-24T00:23:31;8.70;;;4.43;;
42092;SDS011;28974;50.316;18.960;2023-06-24T00:35:34;10.63;;;4.07;;
42092;SDS011;28974;50.316;18.960;2023-06-24T00:47:40;18.98;;;7.10;;
42092;SDS011;28974;50.316;18.960;2023-06-24T00:59:40;14.63;;;5.75;;
42092;SDS011;28974;50.316;18.960;2023-06-24T01:11:43;16.85;;;5.32;;
42092;SDS011;28974;50.316;18.960;2023-06-24T01:35:51;10.02;;;4.72;;
42092;SDS011;28974;50.316;18.960;2023-06-24T01:48:27;19.50;;;6.13;;
42092;SDS011;28974;50.316;18.960;2023-06-24T02:00:19;13.23;;;6.20;;
42092;SDS011;28974;50.316;18.960;2023-06-24T02:12:23;8.95;;;5.72;;
42092;SDS011;28974;50.316;18.960;2023-06-24T02:24:24;20.80;;;8.05;;
42092;SDS011;28974;50.316;18.960;2023-06-24T02:36:26;12.07;;;7.07;;
42092;SDS011;28974;50.316;18.960;2023-06-24T02:48:28;18.63;;;7.60;;
42092;SDS011;28974;50.316;18.960;2023-06-24T03:00:28;16.60;;;9.50;;
42092;SDS011;28974;50.316;18.960;2023-06-24T03:12:42;26.98;;;10.07;;
42092;SDS011;28974;50.316;18.960;2023-06-24T03:24:43;19.45;;;11.80;;
42092;SDS011;28974;50.316;18.960;2023-06-24T03:36:44;23.25;;;10.20;;
42092;SDS011;28974;50.316;18.960;2023-06-24T03:48:47;16.77;;;10.75;;
42092;SDS011;28974;50.316;18.960;2023-06-24T04:00:49;48.13;;;21.17;;
42092;SDS011;28974;50.316;18.960;2023-06-24T04:12:50;56.35;;;30.83;;
42092;SDS011;28974;50.316;18.960;2023-06-24T04:24:50;63.30;;;32.63;;
42092;SDS011;28974;50.316;18.960;2023-06-24T04:36:51;60.70;;;32.30;;
42092;SDS011;28974;50.316;18.960;2023-06-24T04:48:52;60.17;;;31.05;;
42092;SDS011;28974;50.316;18.960;2023-06-24T05:00:52;50.50;;;29.65;;
42092;SDS011;28974;50.316;18.960;2023-06-24T05:12:53;59.35;;;34.35;;
42092;SDS011;28974;50.316;18.960;2023-06-24T05:24:59;52.50;;;29.33;;
42092;SDS011;28974;50.316;18.960;2023-06-24T05:37:00;37.00;;;21.83;;
42092;SDS011;28974;50.316;18.960;2023-06-24T05:49:00;34.38;;;18.88;;
42092;SDS011;28974;50.316;18.960;2023-06-24T06:01:05;31.52;;;17.88;;
42092;SDS011;28974;50.316;18.960;2023-06-24T06:13:11;29.38;;;15.65;;
42092;SDS011;28974;50.316;18.960;2023-06-24T06:25:12;29.90;;;14.85;;
42092;SDS011;28974;50.316;18.960;2023-06-24T06:37:12;20.63;;;13.48;;
42092;SDS011;28974;50.316;18.960;2023-06-24T06:49:13;23.90;;;12.13;;
42092;SDS011;28974;50.316;18.960;2023-06-24T07:01:13;21.10;;;11.65;;
42092;SDS011;28974;50.316;18.960;2023-06-24T07:13:13;19.60;;;11.68;;
42092;SDS011;28974;50.316;18.960;2023-06-24T07:25:14;17.40;;;11.02;;
42092;SDS011;28974;50.316;18.960;2023-06-24T07:37:19;21.92;;;10.75;;
42092;SDS011;28974;50.316;18.960;2023-06-24T07:49:20;23.88;;;11.95;;
42092;SDS011;28974;50.316;18.960;2023-06-24T08:01:20;22.17;;;13.32;;
42092;SDS011;28974;50.316;18.960;2023-06-24T08:13:20;23.00;;;14.07;;
42092;SDS011;28974;50.316;18.960;2023-06-24T08:25:21;21.98;;;13.27;;
42092;SDS011;28974;50.316;18.960;2023-06-24T08:37:21;15.75;;;11.00;;
42092;SDS011;28974;50.316;18.960;2023-06-24T09:01:22;14.65;;;9.10;;
42092;SDS011;28974;50.316;18.960;2023-06-24T09:13:43;23.42;;;9.98;;
42092;SDS011;28974;50.316;18.960;2023-06-24T09:25:44;12.75;;;8.50;;
42092;SDS011;28974;50.316;18.960;2023-06-24T09:37:53;18.73;;;11.20;;
42092;SDS011;28974;50.316;18.960;2023-06-24T09:49:56;21.85;;;12.05;;
42092;SDS011;28974;50.316;18.960;2023-06-24T10:01:57;18.95;;;10.18;;
42092;SDS011;28974;50.316;18.960;2023-06-24T10:13:57;15.85;;;11.02;;
42092;SDS011;28974;50.316;18.960;2023-06-24T10:25:58;29.20;;;11.90;;
42092;SDS011;28974;50.316;18.960;2023-06-24T10:37:59;15.02;;;10.80;;
42092;SDS011;28974;50.316;18.960;2023-06-24T10:49:59;15.35;;;10.07;;
42092;SDS011;28974;50.316;18.960;2023-06-24T11:02:00;24.02;;;9.30;;
42092;SDS011;28974;50.316;18.960;2023-06-24T11:14:01;18.63;;;10.20;;
42092;SDS011;28974;50.316;18.960;2023-06-24T11:26:03;14.20;;;9.48;;
42092;SDS011;28974;50.316;18.960;2023-06-24T11:38:03;20.83;;;8.32;;
42092;SDS011;28974;50.316;18.960;2023-06-24T11:50:07;12.95;;;8.32;;
42092;SDS011;28974;50.316;18.960;2023-06-24T12:02:07;17.70;;;9.60;;
42092;SDS011;28974;50.316;18.960;2023-06-24T12:14:13;12.85;;;8.30;;
42092;SDS011;28974;50.316;18.960;2023-06-24T12:26:14;23.10;;;10.00;;
42092;SDS011;28974;50.316;18.960;2023-06-24T12:38:14;15.15;;;9.65;;
42092;SDS011;28974;50.316;18.960;2023-06-24T12:50:16;21.13;;;8.43;;
42092;SDS011;28974;50.316;18.960;2023-06-24T13:02:16;15.18;;;8.35;;
42092;SDS011;28974;50.316;18.960;2023-06-24T13:14:16;10.35;;;6.78;;
42092;SDS011;28974;50.316;18.960;2023-06-24T13:26:17;16.40;;;7.85;;
42092;SDS011;28974;50.316;18.960;2023-06-24T13:38:17;14.63;;;7.25;;
42092;SDS011;28974;50.316;18.960;2023-06-24T13:50:17;12.27;;;6.80;;
42092;SDS011;28974;50.316;18.960;2023-06-24T14:02:18;9.73;;;5.55;;
42092;SDS011;28974;50.316;18.960;2023-06-24T14:14:19;9.60;;;5.93;;
42092;SDS011;28974;50.316;18.960;2023-06-24T14:26:19;16.17;;;6.03;;
42092;SDS011;28974;50.316;18.960;2023-06-24T14:38:20;8.00;;;5.85;;
42092;SDS011;28974;50.316;18.960;2023-06-24T14:50:20;10.43;;;5.93;;
42092;SDS011;28974;50.316;18.960;2023-06-24T15:02:20;10.98;;;5.93;;
42092;SDS011;28974;50.316;18.960;2023-06-24T15:14:21;7.85;;;5.03;;
42092;SDS011;28974;50.316;18.960;2023-06-24T15:26:21;7.25;;;5.03;;
42092;SDS011;28974;50.316;18.960;2023-06-24T15:38:21;9.80;;;5.63;;
42092;SDS011;28974;50.316;18.960;2023-06-24T15:50:22;13.50;;;6.03;;
42092;SDS011;28974;50.316;18.960;2023-06-24T16:02:22;18.55;;;6.40;;
42092;SDS011;28974;50.316;18.960;2023-06-24T16:14:23;10.88;;;6.93;;
42092;SDS011;28974;50.316;18.960;2023-06-24T16:26:23;10.03;;;6.67;;
42092;SDS011;28974;50.316;18.960;2023-06-24T16:38:24;14.30;;;7.72;;
42092;SDS011;28974;50.316;18.960;2023-06-24T16:50:24;14.35;;;7.40;;
42092;SDS011;28974;50.316;18.960;2023-06-24T17:02:24;13.63;;;8.13;;
42092;SDS011;28974;50.316;18.960;2023-06-24T17:14:25;12.55;;;8.57;;
42092;SDS011;28974;50.316;18.960;2023-06-24T17:26:25;15.13;;;8.85;;
42092;SDS011;28974;50.316;18.960;2023-06-24T17:38:26;12.77;;;7.97;;
42092;SDS011;28974;50.316;18.960;2023-06-24T17:50:30;10.55;;;6.53;;
42092;SDS011;28974;50.316;18.960;2023-06-24T18:02:31;12.25;;;8.88;;
42092;SDS011;28974;50.316;18.960;2023-06-24T18:14:31;23.33;;;11.50;;
42092;SDS011;28974;50.316;18.960;2023-06-24T18:26:31;29.33;;;15.52;;
42092;SDS011;28974;50.316;18.960;2023-06-24T18:38:32;23.52;;;11.63;;
42092;SDS011;28974;50.316;18.960;2023-06-24T18:50:32;26.17;;;14.95;;
42092;SDS011;28974;50.316;18.960;2023-06-24T19:02:32;22.98;;;13.48;;
42092;SDS011;28974;50.316;18.960;2023-06-24T19:14:33;20.83;;;11.25;;
42092;SDS011;28974;50.316;18.960;2023-06-24T19:26:33;24.52;;;13.50;;
42092;SDS011;28974;50.316;18.960;2023-06-24T19:38:34;25.80;;;14.15;;
42092;SDS011;28974;50.316;18.960;2023-06-24T19:50:34;40.55;;;21.35;;
42092;SDS011;28974;50.316;18.960;2023-06-24T20:02:35;46.05;;;19.38;;
42092;SDS011;28974;50.316;18.960;2023-06-24T20:14:35;26.77;;;16.38;;
42092;SDS011;28974;50.316;18.960;2023-06-24T20:26:36;32.53;;;20.67;;
42092;SDS011;28974;50.316;18.960;2023-06-24T20:38:36;44.03;;;23.88;;
42092;SDS011;28974;50.316;18.960;2023-06-24T20:50:37;42.03;;;26.05;;
42092;SDS011;28974;50.316;18.960;2023-06-24T21:02:37;37.33;;;22.48;;
42092;SDS011;28974;50.316;18.960;2023-06-24T21:14:38;54.00;;;28.65;;
42092;SDS011;28974;50.316;18.960;2023-06-24T21:26:38;43.30;;;24.35;;
42092;SDS011;28974;50.316;18.960;2023-06-24T21:38:38;50.28;;;27.58;;
42092;SDS011;28974;50.316;18.960;2023-06-24T21:50:39;58.80;;;29.70;;
42092;SDS011;28974;50.316;18.960;2023-06-24T22:02:39;47.85;;;25.38;;
42092;SDS011;28974;50.316;18.960;2023-06-24T22:14:39;42.50;;;23.80;;
42092;SDS011;28974;50.316;18.960;2023-06-24T22:26:40;36.00;;;22.08;;
42092;SDS011;28974;50.316;18.960;2023-06-24T22:38:40;35.63;;;20.58;;
42092;SDS011;28974;50.316;18.960;2023-06-24T22:50:40;30.20;;;19.15;;
42092;SDS011;28974;50.316;18.960;2023-06-24T23:02:41;61.08;;;36.30;;
42092;SDS011;28974;50.316;18.960;2023-06-24T23:14:41;94.88;;;56.80;;
42092;SDS011;28974;50.316;18.960;2023-06-24T23:26:42;39.38;;;23.13;;
42092;SDS011;28974;50.316;18.960;2023-06-24T23:38:50;37.25;;;22.23;;
42092;SDS011;28974;50.316;18.960;2023-06-24T23:50:51;44.08;;;24.88;;
